»·PEaware :: N172NM KLAX-KSAN

N172NM :: KLAX-KSAN

FLIGHT INFORMATION

Flight Status: Arrived
Operator: Privately registered:
United States
More flights under this callsign
Pilot: Neil M. (13104)
Aircraft: CESSNA 172 SKYHAWK
(C172)
More flights by this aircraft type
Origin: KLAX Los Angeles Intl
United States
Destination: KSAN San Diego Intl-Lindbergh
United States
More flights between these airports :: More routes between these airports
Route: +
File this flight plan on PilotEdge
Remarks: CAT-11
Altitude:
(Current/Filed)
7,500ft
Speed:
(Current/Filed)
115kts
Departed: 04-Jan-18 03:07 PM
Arrived: 04-Jan-18 04:10 PM
Distance/Time
Traveled:
95nm/1:03
Distance/Time
To Go:
Arrived

Flight Plot

Page will automatically refresh every two minutes.


Map Options




Map Legend


Flown Route
Filed Route
Departure Airport
Arrival Airport
Navaid (VOR, NDB)
Fix

Horizontal Profiles

Position Reports

Time Latitude Longitude Heading Altitude Ground
Speed
04-Jan-18 14:49 33.932791 -118.397563 334 109ft 0kts
04-Jan-18 14:50 33.932791 -118.397563 334 109ft 0kts
04-Jan-18 14:51 33.932791 -118.397563 334 109ft 0kts
04-Jan-18 14:52 33.932791 -118.397563 334 109ft 0kts
04-Jan-18 14:53 33.932791 -118.397563 334 109ft 0kts
04-Jan-18 14:54 33.932791 -118.397563 334 109ft 0kts
04-Jan-18 14:55 33.932791 -118.397563 334 109ft 0kts
04-Jan-18 14:56 33.932791 -118.397563 334 109ft 0kts
04-Jan-18 14:57 33.932791 -118.397563 334 109ft 0kts
04-Jan-18 14:58 33.932791 -118.397563 334 109ft 0kts
04-Jan-18 14:59 33.932791 -118.397563 334 109ft 0kts
04-Jan-18 15:00 33.932791 -118.397563 334 109ft 0kts
04-Jan-18 15:01 33.932791 -118.397563 334 109ft 0kts
04-Jan-18 15:02 33.932791 -118.397563 334 109ft 0kts
04-Jan-18 15:03 33.932791 -118.397563 334 109ft 0kts
04-Jan-18 15:04 33.933012 -118.397734 327 109ft 8kts
04-Jan-18 15:05 33.934762 -118.396380 80 107ft 15kts
04-Jan-18 15:06 33.935455 -118.389254 85 101ft 24kts
04-Jan-18 15:07 33.936350 -118.382819 26 96ft 3kts
04-Jan-18 15:08 33.936368 -118.382810 20 96ft 0kts
04-Jan-18 15:09 33.936368 -118.382810 20 96ft 0kts
04-Jan-18 15:10 33.936368 -118.382810 20 96ft 0kts
04-Jan-18 15:11 33.936468 -118.382779 1 96ft 0kts
04-Jan-18 15:12 33.936468 -118.382779 1 96ft 0kts
04-Jan-18 15:13 33.935630 -118.398112 264 462ft 76kts
04-Jan-18 15:14 33.932510 -118.426027 263 1091ft 91kts
04-Jan-18 15:15 33.929231 -118.456935 263 1592ft 93kts
04-Jan-18 15:16 33.909226 -118.468060 178 2086ft 96kts
04-Jan-18 15:17 33.880960 -118.467073 180 2539ft 112kts
04-Jan-18 15:18 33.848645 -118.466328 180 2924ft 125kts
04-Jan-18 15:19 33.812278 -118.465844 180 2917ft 133kts
04-Jan-18 15:20 33.785628 -118.447975 73 2916ft 131kts
04-Jan-18 15:21 33.795320 -118.411835 98 3593ft 110kts
04-Jan-18 15:22 33.774129 -118.387156 145 4274ft 106kts
04-Jan-18 15:23 33.755460 -118.371991 145 4805ft 105kts
04-Jan-18 15:24 33.732510 -118.353059 145 5465ft 104kts
04-Jan-18 15:25 33.720195 -118.342851 145 5835ft 101kts
04-Jan-18 15:26 33.697545 -118.324152 145 6527ft 97kts
04-Jan-18 15:27 33.675963 -118.306248 145 7216ft 91kts
04-Jan-18 15:28 33.653474 -118.287497 145 7492ft 116kts
04-Jan-18 15:29 33.625550 -118.263180 129 7387ft 125kts
04-Jan-18 15:30 33.603474 -118.231455 129 7391ft 124kts
04-Jan-18 15:31 33.588654 -118.208010 92 7388ft 123kts
04-Jan-18 15:32 33.569526 -118.175898 122 7385ft 123kts
04-Jan-18 15:33 33.552418 -118.142536 134 7391ft 122kts
04-Jan-18 15:34 33.529609 -118.112241 130 7387ft 123kts
04-Jan-18 15:35 33.505978 -118.082780 133 7391ft 123kts
04-Jan-18 15:36 33.482223 -118.053201 133 7391ft 123kts
04-Jan-18 15:37 33.459569 -118.022511 129 7391ft 123kts
04-Jan-18 15:38 33.438369 -117.990512 126 7391ft 123kts
04-Jan-18 15:39 33.424652 -117.954678 122 7386ft 122kts
04-Jan-18 15:40 33.404255 -117.921985 136 7390ft 123kts
04-Jan-18 15:41 33.379937 -117.893134 130 7391ft 123kts
04-Jan-18 15:42 33.358585 -117.861183 127 7391ft 123kts
04-Jan-18 15:43 33.337862 -117.828659 127 7391ft 123kts
04-Jan-18 15:44 33.317106 -117.796150 127 7391ft 123kts
04-Jan-18 15:45 33.296441 -117.763838 127 7391ft 123kts
04-Jan-18 15:46 33.272969 -117.734332 138 7391ft 123kts
04-Jan-18 15:47 33.247017 -117.707845 139 7407ft 122kts
04-Jan-18 15:48 33.221171 -117.681527 139 7435ft 121kts
04-Jan-18 15:49 33.195271 -117.655164 139 7436ft 123kts
04-Jan-18 15:50 33.169084 -117.628589 139 7418ft 123kts
04-Jan-18 15:51 33.142878 -117.601984 139 7400ft 123kts
04-Jan-18 15:52 33.116737 -117.575558 139 7400ft 123kts
04-Jan-18 15:53 33.090665 -117.549247 139 7400ft 123kts
04-Jan-18 15:54 33.064558 -117.522776 137 7400ft 123kts
04-Jan-18 15:55 33.072680 -117.486322 58 7128ft 129kts
04-Jan-18 15:56 33.091262 -117.449295 58 6368ft 134kts
04-Jan-18 15:57 33.110351 -117.411488 58 5366ft 132kts
04-Jan-18 15:58 33.125514 -117.372094 70 4364ft 131kts
04-Jan-18 15:59 33.132522 -117.332951 126 3400ft 131kts
04-Jan-18 16:00 33.108461 -117.310964 165 3388ft 100kts
04-Jan-18 16:01 33.082192 -117.324553 206 3406ft 110kts
04-Jan-18 16:02 33.052581 -117.332893 171 3404ft 112kts
04-Jan-18 16:03 33.022487 -117.322667 161 3404ft 113kts
04-Jan-18 16:04 32.992764 -117.310961 161 3404ft 113kts
04-Jan-18 16:05 32.962875 -117.299311 161 3404ft 113kts
04-Jan-18 16:06 32.933090 -117.287715 161 3404ft 113kts
04-Jan-18 16:07 32.903263 -117.276113 161 3404ft 113kts
04-Jan-18 16:08 32.874609 -117.264971 161 3404ft 113kts
04-Jan-18 16:09 32.844745 -117.253368 161 3404ft 113kts
04-Jan-18 16:10 32.816598 -117.237895 153 3403ft 110kts
04-Jan-18 16:11 32.788551 -117.221582 154 3038ft 123kts
04-Jan-18 16:12 32.759176 -117.202938 126 1575ft 114kts
04-Jan-18 16:13 32.752724 -117.177247 79 1629ft 71kts
04-Jan-18 16:14 32.741668 -117.164011 166 1284ft 69kts
04-Jan-18 16:15 32.729798 -117.174287 285 322ft 64kts
04-Jan-18 16:16 32.733756 -117.190821 287 17ft 32kts
04-Jan-18 16:17 32.734134 -117.195036 234 16ft 0kts
04-Jan-18 16:18 32.734134 -117.195036 234 16ft 0kts
04-Jan-18 16:19 32.732913 -117.191351 106 17ft 18kts
04-Jan-18 16:20 32.731482 -117.189755 298 14ft 0kts

Navigation Log

Ident Type
Flight plan parsing failed, navigation log unavailable